Union Grove, AL (35175)

6:18 AM CST on December 28, 2014 (GMT -0600)
Allens Cross Rd | Change Station
CLOSE
Current Station
Personal Weather Station
Location: Union Grove, AL
Elevation: 1003 ft
Nearby Weather Stations
Active Advisory: Flash Flood Watch

Elev 1003 ft 34.43 °N, 86.53 °W | Updated 2 seconds ago

Rain
Rain
56.8 °F
Feels Like 56.8 °F
N
4.0
Wind Variable Wind from West
Gusts 4.0 mph

Today
High -- | Low -- °F
--% Chance of Precip.
Yesterday
High -- | Low -- °F
Precip. -- in
6:51 AM 4:43 PM
Waxing Crescent, 47% visible
Pressure 30.02 in
Visibility 7.0 miles
Clouds Scattered Clouds 700 ft
Overcast 1100 ft
Dew Point 56 °F
Humidity 96%
Rainfall 0.00 in
Snow Depth Not available.
UV 0.0 out of 12
Pollen .40 out of 12
Air Quality Not available.
Flu Activity Not available.
METAR K8A0 281155Z AUTO 15006KT 7SM DZ SCT007 OVC011 13/13 A3002 RMK AO2 P0002

More Conditions Fewer Conditions

Pressure 30.02 in
Visibility 7.0 miles
Clouds Scattered Clouds 700 ft
Overcast 1100 ft
Dew Point 56 °F
Humidity 96%
Rainfall 0.00 in
Snow Depth Not available.
UV 0.0 out of 12
Pollen .40 out of 12
Air Quality Not available.
Flu Activity Not available.
METAR K8A0 281155Z AUTO 15006KT 7SM DZ SCT007 OVC011 13/13 A3002 RMK AO2 P0002

More Conditions Fewer Conditions

10-Day Weather Forecast

Almanac

Astronomy

Dec. 28, 2014 Rise Set
Actual Time
Civil Twilight
Nautical Twilight
Astronomical Twilight
Moon
Length of Visible Light
Length of Day
Tomorrow will be .
, % of the Moon is Illuminated

Today's Extremes

State Highs State Lows

Community

WunderPhotos

Upload Photos

1,781,238 photos uploaded!

WunderBlogs® & News

Nearby

Air Quality

  Air Quality AQ Index Pollutant
Not available.

Snow Depth

Station Depth Elevation

Earthquake Activity

City Distance Mag. Time & Date
Minimum magnitude displayed is 2.5.

Coastal Water Temperatures

Place Temperature

Nearby Weather Stations